Time;durP1;ratioP1;P1;durP2;ratioP2;P2;SDS_P1;SDS_P2;PMS_P1;PMS_P2;Temp;Humidity;BMP_temperature;BMP_pressure;BME280_temperature;BME280_humidity;BME280_pressure;Samples;Min_cycle;Max_cycle;Signal;HPM_P1;HPM_P2
2022/06/18 00:00:46;;;;;;;1.52;0.90;;;;;;;;;;5080277;28;20204;-56
2022/06/18 00:03:14;;;;;;;2.08;1.05;;;;;;;;;;5079990;28;20239;-56
2022/06/18 00:05:43;;;;;;;1.20;1.10;;;;;;;;;;5080827;28;20273;-56
2022/06/18 00:08:13;;;;;;;1.38;0.90;;;;;;;;;;5079852;28;20205;-56
2022/06/18 00:10:42;;;;;;;2.08;1.10;;;;;;;;;;5080261;28;20275;-55
2022/06/18 00:16:04;;;;;;;1.20;1.10;;;;;;;;;;5079971;28;20285;-56
2022/06/18 00:18:31;;;;;;;1.20;1.10;;;;;;;;;;5080721;28;20204;-56
2022/06/18 00:21:00;;;;;;;1.20;1.10;;;;;;;;;;5080868;28;20272;-56
2022/06/18 00:23:27;;;;;;;1.00;1.00;;;;;;;;;;5080401;28;20208;-55
2022/06/18 00:25:56;;;;;;;1.48;1.00;;;;;;;;;;5080730;28;20265;-55
2022/06/18 00:28:25;;;;;;;1.77;1.10;;;;;;;;;;5080818;28;20216;-55
2022/06/18 00:30:53;;;;;;;1.10;1.00;;;;;;;;;;5080167;28;20208;-56
2022/06/18 00:33:21;;;;;;;1.92;1.13;;;;;;;;;;5080099;28;20224;-56
2022/06/18 00:35:49;;;;;;;1.50;1.17;;;;;;;;;;5079518;28;20228;-55
2022/06/18 00:38:24;;;;;;;2.03;1.10;;;;;;;;;;5059624;28;20204;-55
2022/06/18 00:40:52;;;;;;;0.93;0.82;;;;;;;;;;5060224;28;20212;-55
2022/06/18 00:43:23;;;;;;;1.80;1.02;;;;;;;;;;5060288;28;20270;-55
2022/06/18 00:45:53;;;;;;;1.67;1.20;;;;;;;;;;5059822;28;20244;-55
2022/06/18 00:48:22;;;;;;;1.35;1.10;;;;;;;;;;5059734;28;20205;-55
2022/06/18 00:50:52;;;;;;;1.08;1.00;;;;;;;;;;5058987;28;20809;-55
2022/06/18 00:53:22;;;;;;;1.67;1.15;;;;;;;;;;5059830;28;20261;-57
2022/06/18 00:55:54;;;;;;;1.65;1.05;;;;;;;;;;5059948;28;20274;-56
2022/06/18 00:58:29;;;;;;;1.42;1.20;;;;;;;;;;5059667;28;20205;-56
2022/06/18 01:00:57;;;;;;;1.00;1.00;;;;;;;;;;5059579;28;20212;-55
2022/06/18 01:03:26;;;;;;;1.38;1.10;;;;;;;;;;5059228;28;20575;-55
2022/06/18 01:05:54;;;;;;;0.93;0.93;;;;;;;;;;5059181;28;20213;-56
2022/06/18 01:08:26;;;;;;;0.90;0.90;;;;;;;;;;5059799;28;20657;-55
2022/06/18 01:10:56;;;;;;;1.33;1.13;;;;;;;;;;5059971;28;20268;-57
2022/06/18 01:13:27;;;;;;;1.33;1.23;;;;;;;;;;5059457;28;20229;-55
2022/06/18 01:15:56;;;;;;;2.13;1.20;;;;;;;;;;5059209;28;20212;-55
2022/06/18 01:18:24;;;;;;;1.27;1.20;;;;;;;;;;5060267;28;20244;-55
2022/06/18 01:20:53;;;;;;;1.10;1.10;;;;;;;;;;5079279;28;20230;-55
2022/06/18 01:23:25;;;;;;;1.05;1.05;;;;;;;;;;5079161;28;20645;-56
2022/06/18 01:25:54;;;;;;;1.17;1.10;;;;;;;;;;5079347;28;20216;-55
2022/06/18 01:28:22;;;;;;;1.20;1.10;;;;;;;;;;5079470;28;20219;-56
2022/06/18 01:30:49;;;;;;;1.10;1.00;;;;;;;;;;5079354;28;20218;-55
2022/06/18 01:33:18;;;;;;;1.20;1.10;;;;;;;;;;5079314;28;20239;-56
2022/06/18 01:35:46;;;;;;;1.45;1.25;;;;;;;;;;5078732;28;20200;-56
2022/06/18 01:38:14;;;;;;;1.10;1.00;;;;;;;;;;5078997;28;20546;-56
2022/06/18 01:40:44;;;;;;;1.17;1.08;;;;;;;;;;5079305;28;20242;-56
2022/06/18 01:43:15;;;;;;;1.23;1.10;;;;;;;;;;5079115;28;20235;-56
2022/06/18 01:45:43;;;;;;;1.00;1.00;;;;;;;;;;5078447;28;20204;-56
2022/06/18 01:48:16;;;;;;;1.10;1.00;;;;;;;;;;5061906;28;20261;-55
2022/06/18 01:50:47;;;;;;;1.10;1.10;;;;;;;;;;5079471;28;20233;-55
2022/06/18 01:53:16;;;;;;;1.40;1.30;;;;;;;;;;5079204;28;20212;-55
2022/06/18 01:55:45;;;;;;;1.00;1.00;;;;;;;;;;5078767;28;20599;-55
2022/06/18 01:58:17;;;;;;;1.20;1.10;;;;;;;;;;5078608;28;20212;-56
2022/06/18 02:00:47;;;;;;;1.38;1.13;;;;;;;;;;5078778;28;20192;-56
2022/06/18 02:03:14;;;;;;;1.10;1.05;;;;;;;;;;5078805;28;20204;-56
2022/06/18 02:05:41;;;;;;;1.13;1.08;;;;;;;;;;5078864;28;20307;-56
2022/06/18 02:08:10;;;;;;;1.00;1.00;;;;;;;;;;5078334;28;20230;-55
2022/06/18 02:10:39;;;;;;;1.73;1.10;;;;;;;;;;5077295;28;20214;-56
2022/06/18 02:13:07;;;;;;;1.30;1.20;;;;;;;;;;5077493;28;20208;-56
2022/06/18 02:15:37;;;;;;;1.45;1.33;;;;;;;;;;5078428;28;20685;-56
2022/06/18 02:18:06;;;;;;;1.27;1.17;;;;;;;;;;5077041;28;20201;-56
2022/06/18 02:20:36;;;;;;;1.40;1.30;;;;;;;;;;5078399;28;20275;-56
2022/06/18 02:23:04;;;;;;;1.55;1.20;;;;;;;;;;5078342;28;20212;-56
2022/06/18 02:25:32;;;;;;;1.55;1.20;;;;;;;;;;5078648;28;20611;-56
2022/06/18 02:28:02;;;;;;;1.77;1.20;;;;;;;;;;5078223;28;20602;-55
2022/06/18 02:30:33;;;;;;;1.15;0.98;;;;;;;;;;5078388;28;20630;-56
2022/06/18 02:33:06;;;;;;;1.48;1.33;;;;;;;;;;5078219;28;20239;-56
2022/06/18 02:35:35;;;;;;;1.17;1.17;;;;;;;;;;5078021;28;20234;-56
2022/06/18 02:38:02;;;;;;;1.30;1.20;;;;;;;;;;5078396;28;20205;-58
2022/06/18 02:40:32;;;;;;;1.60;1.20;;;;;;;;;;5078589;28;20477;-57
2022/06/18 02:43:01;;;;;;;1.00;1.00;;;;;;;;;;5077909;28;20548;-56
2022/06/18 02:45:31;;;;;;;1.48;1.38;;;;;;;;;;5078463;28;20200;-56
2022/06/18 02:48:00;;;;;;;1.73;1.20;;;;;;;;;;5078187;28;20567;-56
2022/06/18 02:50:31;;;;;;;1.70;1.20;;;;;;;;;;5077242;28;20529;-56
2022/06/18 02:53:01;;;;;;;1.30;1.20;;;;;;;;;;5077289;28;20299;-56
2022/06/18 02:55:31;;;;;;;1.13;1.10;;;;;;;;;;5078305;28;20256;-56
2022/06/18 02:58:00;;;;;;;1.33;1.23;;;;;;;;;;5078251;28;20232;-56
2022/06/18 03:00:28;;;;;;;1.17;1.08;;;;;;;;;;5077986;28;20269;-56
2022/06/18 03:02:55;;;;;;;1.25;1.15;;;;;;;;;;5078162;28;20226;-56
2022/06/18 03:05:25;;;;;;;1.30;1.20;;;;;;;;;;5078153;28;20236;-56
2022/06/18 03:07:54;;;;;;;1.00;1.00;;;;;;;;;;5078222;28;20258;-56
2022/06/18 03:13:07;;;;;;;1.50;1.40;;;;;;;;;;5077915;28;20235;-56
2022/06/18 03:15:35;;;;;;;1.25;1.15;;;;;;;;;;5077544;28;20224;-56
2022/06/18 03:18:03;;;;;;;1.50;1.40;;;;;;;;;;5077760;28;20208;-56
2022/06/18 03:20:36;;;;;;;1.25;1.15;;;;;;;;;;5077498;28;20204;-56
2022/06/18 03:23:06;;;;;;;1.25;1.15;;;;;;;;;;5078529;28;20250;-56
2022/06/18 03:25:33;;;;;;;1.40;1.30;;;;;;;;;;5081434;28;20218;-56
2022/06/18 03:28:01;;;;;;;1.20;1.10;;;;;;;;;;5081917;28;20250;-56
2022/06/18 03:30:28;;;;;;;1.60;1.10;;;;;;;;;;5081687;28;20212;-56
2022/06/18 03:32:56;;;;;;;3.33;1.13;;;;;;;;;;5081824;28;20204;-56
2022/06/18 03:35:23;;;;;;;1.00;0.95;;;;;;;;;;5081868;28;20801;-56
2022/06/18 03:37:51;;;;;;;1.30;1.10;;;;;;;;;;5082185;28;20204;-56
2022/06/18 03:40:20;;;;;;;1.23;1.13;;;;;;;;;;5081441;28;20238;-56
2022/06/18 03:42:49;;;;;;;1.63;1.20;;;;;;;;;;5081391;28;20215;-56
2022/06/18 03:45:16;;;;;;;1.38;1.25;;;;;;;;;;5081038;28;20283;-56
2022/06/18 03:47:44;;;;;;;2.47;1.50;;;;;;;;;;5081477;28;20224;-58
2022/06/18 03:50:15;;;;;;;1.52;1.40;;;;;;;;;;5080972;28;20232;-56
2022/06/18 03:52:43;;;;;;;1.33;1.23;;;;;;;;;;5081209;28;20226;-56
2022/06/18 03:55:11;;;;;;;1.60;1.50;;;;;;;;;;5080452;28;20278;-56
2022/06/18 03:57:40;;;;;;;1.30;1.20;;;;;;;;;;5080644;28;20204;-56
2022/06/18 04:00:10;;;;;;;1.48;1.38;;;;;;;;;;5081086;28;20235;-56
2022/06/18 04:02:37;;;;;;;1.45;1.00;;;;;;;;;;5080927;28;20204;-56
2022/06/18 04:05:05;;;;;;;1.30;1.20;;;;;;;;;;5081111;28;20201;-56
2022/06/18 04:07:32;;;;;;;1.40;1.30;;;;;;;;;;5081297;28;20205;-56
2022/06/18 04:10:01;;;;;;;1.30;1.20;;;;;;;;;;5080941;28;20259;-56
2022/06/18 04:12:28;;;;;;;2.08;1.13;;;;;;;;;;5080490;28;20250;-56
2022/06/18 04:14:57;;;;;;;1.30;1.25;;;;;;;;;;5081044;28;20274;-56
2022/06/18 04:17:25;;;;;;;1.25;1.15;;;;;;;;;;5080516;28;20236;-56
2022/06/18 04:19:52;;;;;;;1.50;1.40;;;;;;;;;;5080255;28;20207;-56
2022/06/18 04:22:20;;;;;;;1.50;1.40;;;;;;;;;;5080510;28;20298;-56
2022/06/18 04:24:47;;;;;;;1.40;1.30;;;;;;;;;;5080989;28;20489;-55
2022/06/18 04:27:15;;;;;;;1.40;1.30;;;;;;;;;;5080410;28;20204;-55
2022/06/18 04:29:42;;;;;;;1.42;1.33;;;;;;;;;;5080568;28;20212;-56
2022/06/18 04:32:11;;;;;;;1.60;1.40;;;;;;;;;;5080427;28;20266;-55
2022/06/18 04:34:38;;;;;;;1.50;1.40;;;;;;;;;;5079541;28;20224;-56
2022/06/18 04:37:06;;;;;;;1.70;1.60;;;;;;;;;;5080704;28;20212;-55
2022/06/18 04:39:33;;;;;;;1.40;1.30;;;;;;;;;;5080642;28;20557;-56
2022/06/18 04:42:01;;;;;;;1.90;1.40;;;;;;;;;;5080101;28;20299;-55
2022/06/18 04:44:29;;;;;;;1.45;1.35;;;;;;;;;;5080542;28;20209;-56
2022/06/18 04:46:56;;;;;;;1.52;1.40;;;;;;;;;;5080213;28;20591;-55
2022/06/18 04:49:25;;;;;;;1.50;1.40;;;;;;;;;;5079780;28;20247;-56
2022/06/18 04:51:53;;;;;;;1.50;1.40;;;;;;;;;;5080150;28;20204;-56
2022/06/18 04:54:20;;;;;;;1.40;1.30;;;;;;;;;;5079884;28;20251;-56
2022/06/18 04:56:48;;;;;;;1.73;1.63;;;;;;;;;;5080210;28;20212;-56
2022/06/18 04:59:15;;;;;;;1.40;1.30;;;;;;;;;;5080185;28;20587;-56
2022/06/18 05:01:43;;;;;;;1.50;1.40;;;;;;;;;;5080141;28;20598;-56
2022/06/18 05:04:11;;;;;;;1.55;1.45;;;;;;;;;;5079848;28;20208;-56
2022/06/18 05:06:40;;;;;;;1.75;1.65;;;;;;;;;;5079801;28;20201;-56
2022/06/18 05:09:07;;;;;;;1.60;1.50;;;;;;;;;;5079523;28;20200;-56
2022/06/18 05:11:35;;;;;;;1.83;1.73;;;;;;;;;;5079622;28;20399;-56
2022/06/18 05:14:02;;;;;;;1.40;1.38;;;;;;;;;;5079841;28;20760;-56
2022/06/18 05:16:30;;;;;;;1.50;1.40;;;;;;;;;;5078463;28;20523;-56
2022/06/18 05:18:57;;;;;;;1.63;1.50;;;;;;;;;;5079127;28;20257;-55
2022/06/18 05:21:25;;;;;;;1.52;1.42;;;;;;;;;;5079582;28;20205;-56
2022/06/18 05:23:54;;;;;;;1.45;1.30;;;;;;;;;;5079497;28;20204;-56
2022/06/18 05:26:21;;;;;;;1.60;1.42;;;;;;;;;;5079239;28;20291;-56
2022/06/18 05:28:49;;;;;;;1.80;1.70;;;;;;;;;;5079206;28;20205;-56
2022/06/18 05:31:16;;;;;;;2.45;1.50;;;;;;;;;;5079256;28;20243;-56
2022/06/18 05:33:43;;;;;;;1.70;1.60;;;;;;;;;;5079026;28;20270;-56
2022/06/18 05:36:19;;;;;;;1.50;1.40;;;;;;;;;;5078442;28;20323;-56
2022/06/18 05:38:47;;;;;;;1.55;1.45;;;;;;;;;;5078960;28;20235;-56
2022/06/18 05:41:16;;;;;;;1.70;1.60;;;;;;;;;;5078927;28;20295;-56
2022/06/18 05:43:43;;;;;;;2.17;1.48;;;;;;;;;;5078733;28;20542;-56
2022/06/18 05:46:12;;;;;;;1.73;1.63;;;;;;;;;;5077542;28;20474;-56
2022/06/18 05:48:40;;;;;;;1.80;1.70;;;;;;;;;;5077959;28;20215;-56
2022/06/18 05:51:07;;;;;;;1.58;1.48;;;;;;;;;;5078453;28;20204;-56
2022/06/18 05:53:35;;;;;;;1.83;1.52;;;;;;;;;;5078255;28;20204;-56
2022/06/18 05:56:02;;;;;;;1.63;1.52;;;;;;;;;;5078478;28;20255;-56
2022/06/18 05:58:32;;;;;;;1.42;1.33;;;;;;;;;;5078270;28;20263;-56
2022/06/18 06:01:00;;;;;;;1.80;1.70;;;;;;;;;;5078337;28;20212;-56
2022/06/18 06:03:27;;;;;;;1.65;1.55;;;;;;;;;;5078407;28;20258;-56
2022/06/18 06:05:55;;;;;;;1.83;1.60;;;;;;;;;;5078874;28;20583;-56
2022/06/18 06:08:22;;;;;;;1.83;1.50;;;;;;;;;;5078328;28;20664;-56
2022/06/18 06:13:36;;;;;;;1.75;1.65;;;;;;;;;;5077862;28;20191;-55
2022/06/18 06:16:04;;;;;;;1.63;1.52;;;;;;;;;;5078541;28;20259;-55
2022/06/18 06:18:32;;;;;;;1.83;1.70;;;;;;;;;;5077500;28;20240;-56
2022/06/18 06:21:00;;;;;;;1.92;1.42;;;;;;;;;;5077443;28;20248;-55
2022/06/18 06:23:28;;;;;;;1.60;1.50;;;;;;;;;;5077435;28;20206;-56
2022/06/18 06:25:56;;;;;;;2.22;1.73;;;;;;;;;;5077616;28;20546;-55
2022/06/18 06:28:25;;;;;;;1.60;1.50;;;;;;;;;;5077987;28;20231;-55
2022/06/18 06:30:55;;;;;;;1.70;1.60;;;;;;;;;;5077344;28;20254;-56
2022/06/18 06:33:23;;;;;;;1.70;1.60;;;;;;;;;;5076430;28;20248;-55
2022/06/18 06:35:52;;;;;;;1.40;1.30;;;;;;;;;;5076426;28;20264;-55
2022/06/18 06:38:20;;;;;;;1.40;1.30;;;;;;;;;;5077522;28;20215;-55
2022/06/18 06:40:48;;;;;;;1.60;1.50;;;;;;;;;;5077801;28;20208;-55
2022/06/18 06:43:17;;;;;;;1.40;1.30;;;;;;;;;;5077094;28;20197;-56
2022/06/18 06:45:44;;;;;;;1.88;1.63;;;;;;;;;;5077294;28;20558;-55
2022/06/18 06:48:14;;;;;;;1.70;1.60;;;;;;;;;;5076973;28;20262;-55
2022/06/18 06:50:42;;;;;;;1.95;1.70;;;;;;;;;;5077504;28;20238;-55
2022/06/18 06:53:10;;;;;;;2.00;1.80;;;;;;;;;;5077087;28;20205;-55
2022/06/18 06:58:24;;;;;;;3.47;2.00;;;;;;;;;;5081867;28;20253;-55
2022/06/18 07:00:53;;;;;;;1.88;1.70;;;;;;;;;;5083295;28;20674;-55
2022/06/18 07:03:25;;;;;;;2.78;1.80;;;;;;;;;;5083476;28;20211;-55
2022/06/18 07:05:53;;;;;;;2.25;2.05;;;;;;;;;;5083557;28;20299;-55
2022/06/18 07:08:20;;;;;;;3.92;1.90;;;;;;;;;;5083719;28;20204;-55
2022/06/18 07:10:49;;;;;;;1.90;1.77;;;;;;;;;;5082480;28;20548;-56
2022/06/18 07:13:17;;;;;;;1.80;1.70;;;;;;;;;;5082673;28;20330;-56
2022/06/18 07:15:45;;;;;;;2.00;1.80;;;;;;;;;;5082850;28;20270;-55
2022/06/18 07:18:19;;;;;;;2.25;1.88;;;;;;;;;;5082757;28;20235;-56
2022/06/18 07:20:48;;;;;;;2.40;1.90;;;;;;;;;;5082750;28;20583;-55
2022/06/18 07:23:15;;;;;;;1.98;1.88;;;;;;;;;;5083508;28;20243;-55
2022/06/18 07:25:43;;;;;;;2.47;2.00;;;;;;;;;;5081909;28;20287;-56
2022/06/18 07:28:11;;;;;;;2.10;2.00;;;;;;;;;;5081688;28;20312;-56
2022/06/18 07:30:39;;;;;;;2.83;2.03;;;;;;;;;;5081691;28;20208;-56
2022/06/18 07:33:07;;;;;;;3.75;1.90;;;;;;;;;;5082502;28;20308;-56
2022/06/18 07:35:36;;;;;;;1.90;1.80;;;;;;;;;;5082651;28;20216;-56
2022/06/18 07:38:05;;;;;;;2.10;2.00;;;;;;;;;;5081942;28;20196;-56
2022/06/18 07:40:35;;;;;;;2.63;2.00;;;;;;;;;;5081818;28;20227;-55
2022/06/18 07:43:03;;;;;;;3.05;1.80;;;;;;;;;;5082099;28;20243;-56
2022/06/18 07:45:31;;;;;;;1.75;1.65;;;;;;;;;;5082729;28;20731;-56
2022/06/18 07:47:59;;;;;;;2.35;1.73;;;;;;;;;;5082111;28;20212;-56
2022/06/18 07:50:26;;;;;;;2.10;1.90;;;;;;;;;;5082416;28;20227;-56
2022/06/18 07:52:54;;;;;;;2.20;2.00;;;;;;;;;;5081990;28;20200;-56
2022/06/18 07:55:24;;;;;;;1.90;1.80;;;;;;;;;;5081967;28;20266;-55
2022/06/18 07:57:52;;;;;;;2.20;2.03;;;;;;;;;;5080990;28;20224;-55
2022/06/18 08:00:20;;;;;;;3.00;1.63;;;;;;;;;;5082352;28;20610;-56
2022/06/18 08:02:49;;;;;;;2.03;1.83;;;;;;;;;;5082229;28;20208;-56
2022/06/18 08:05:21;;;;;;;1.90;1.80;;;;;;;;;;5081063;28;20196;-55
2022/06/18 08:07:48;;;;;;;2.40;1.92;;;;;;;;;;5081409;28;20207;-56
2022/06/18 08:10:16;;;;;;;1.70;1.60;;;;;;;;;;5078135;28;20575;-55
2022/06/18 08:12:45;;;;;;;1.85;1.75;;;;;;;;;;5077571;28;20235;-56
2022/06/18 08:15:13;;;;;;;1.90;1.80;;;;;;;;;;5078504;28;20230;-56
2022/06/18 08:17:40;;;;;;;2.28;1.90;;;;;;;;;;5078536;28;20205;-56
2022/06/18 08:20:09;;;;;;;1.95;1.85;;;;;;;;;;5077391;28;20286;-55
2022/06/18 08:22:37;;;;;;;2.03;1.90;;;;;;;;;;5078620;28;20547;-56
2022/06/18 08:25:05;;;;;;;2.13;1.92;;;;;;;;;;5078347;28;20248;-55
2022/06/18 08:27:34;;;;;;;3.20;2.30;;;;;;;;;;5077909;28;20674;-56
2022/06/18 08:30:03;;;;;;;2.00;1.90;;;;;;;;;;5078761;28;20244;-55
2022/06/18 08:32:33;;;;;;;2.13;2.00;;;;;;;;;;5077846;28;20667;-55
2022/06/18 08:35:01;;;;;;;1.60;1.50;;;;;;;;;;5077710;28;20657;-56
2022/06/18 08:37:28;;;;;;;2.25;1.70;;;;;;;;;;5076957;28;20568;-56
2022/06/18 08:39:56;;;;;;;1.92;1.80;;;;;;;;;;5077821;28;20212;-55
2022/06/18 08:42:35;;;;;;;2.28;1.50;;;;;;;;;;5077403;28;20200;-55
2022/06/18 08:45:07;;;;;;;2.03;1.40;;;;;;;;;;5077695;28;20212;-57
2022/06/18 08:47:45;;;;;;;1.50;1.40;;;;;;;;;;5078535;28;20198;-56
2022/06/18 08:50:25;;;;;;;2.28;1.55;;;;;;;;;;5077681;28;20196;-55
2022/06/18 08:53:05;;;;;;;1.67;1.58;;;;;;;;;;5077303;28;20215;-55
2022/06/18 08:55:37;;;;;;;1.70;1.58;;;;;;;;;;5077862;28;20266;-56
2022/06/18 08:58:10;;;;;;;2.17;1.70;;;;;;;;;;5077874;28;20270;-56
2022/06/18 09:00:41;;;;;;;2.33;1.60;;;;;;;;;;5077368;28;20249;-56
2022/06/18 09:03:12;;;;;;;1.60;1.50;;;;;;;;;;5075574;28;20254;-56
2022/06/18 09:05:46;;;;;;;2.15;1.60;;;;;;;;;;5076474;28;20197;-56
2022/06/18 09:08:21;;;;;;;3.25;1.63;;;;;;;;;;5077403;28;20334;-55
2022/06/18 09:10:57;;;;;;;2.35;1.65;;;;;;;;;;5077190;28;20297;-55
2022/06/18 09:13:27;;;;;;;1.83;1.60;;;;;;;;;;5077514;28;20211;-56
2022/06/18 09:15:59;;;;;;;3.53;1.70;;;;;;;;;;5077167;28;20256;-56
2022/06/18 09:18:30;;;;;;;3.40;1.52;;;;;;;;;;5076154;28;20266;-55
2022/06/18 09:20:58;;;;;;;1.42;1.33;;;;;;;;;;5076255;28;20318;-56
2022/06/18 09:23:28;;;;;;;2.53;1.63;;;;;;;;;;5077397;28;20557;-56
2022/06/18 09:25:56;;;;;;;1.83;1.40;;;;;;;;;;5076732;28;20230;-56
2022/06/18 09:28:26;;;;;;;2.08;1.50;;;;;;;;;;5075772;28;20227;-56
2022/06/18 09:30:57;;;;;;;2.42;1.88;;;;;;;;;;5075786;28;20220;-56
2022/06/18 09:33:31;;;;;;;2.42;1.70;;;;;;;;;;5076174;28;20204;-56
2022/06/18 09:36:02;;;;;;;3.13;1.67;;;;;;;;;;5076125;28;20239;-56
2022/06/18 09:38:34;;;;;;;2.13;1.60;;;;;;;;;;5076233;28;20204;-56
2022/06/18 09:41:02;;;;;;;4.18;1.60;;;;;;;;;;5076726;28;20599;-56
2022/06/18 09:43:33;;;;;;;2.80;1.70;;;;;;;;;;5074918;28;20204;-56
2022/06/18 09:46:04;;;;;;;2.38;1.80;;;;;;;;;;5076492;28;20578;-56
2022/06/18 09:48:34;;;;;;;1.83;1.70;;;;;;;;;;5076029;28;20292;-56
2022/06/18 09:51:04;;;;;;;2.80;1.80;;;;;;;;;;5075861;28;20211;-56
2022/06/18 09:53:34;;;;;;;2.95;1.63;;;;;;;;;;5076667;28;20209;-56
2022/06/18 09:56:05;;;;;;;4.88;2.05;;;;;;;;;;5075103;28;20655;-56
2022/06/18 09:58:37;;;;;;;3.35;1.70;;;;;;;;;;5076567;28;20603;-56
2022/06/18 10:01:06;;;;;;;2.92;1.80;;;;;;;;;;5075940;28;20678;-56
2022/06/18 10:09:08;;;;;;;2.83;2.00;;;;;;;;;;5074436;28;20211;-56
2022/06/18 10:11:36;;;;;;;2.10;1.90;;;;;;;;;;5074359;28;20716;-56
2022/06/18 10:14:05;;;;;;;3.60;2.30;;;;;;;;;;5075097;28;20270;-56
2022/06/18 10:16:53;;;;;;;4.63;1.85;;;;;;;;;;5075367;28;20216;-56
2022/06/18 10:19:25;;;;;;;3.85;2.00;;;;;;;;;;5075431;28;20204;-56
2022/06/18 10:21:56;;;;;;;3.47;2.03;;;;;;;;;;5076568;28;20610;-56
2022/06/18 10:24:32;;;;;;;2.05;1.83;;;;;;;;;;5075522;28;20287;-56
2022/06/18 10:27:03;;;;;;;2.88;1.80;;;;;;;;;;5075229;28;20207;-56
2022/06/18 10:29:38;;;;;;;3.05;2.17;;;;;;;;;;5075693;28;20227;-56
2022/06/18 10:32:20;;;;;;;2.95;1.90;;;;;;;;;;5074026;28;20243;-56
2022/06/18 10:34:57;;;;;;;3.90;2.30;;;;;;;;;;5074725;28;20200;-56
2022/06/18 10:37:31;;;;;;;2.63;1.95;;;;;;;;;;5075406;28;20231;-56
2022/06/18 10:40:02;;;;;;;4.38;2.40;;;;;;;;;;5074611;28;20212;-56
2022/06/18 10:42:41;;;;;;;2.72;2.03;;;;;;;;;;5075415;28;20203;-56
2022/06/18 10:45:13;;;;;;;4.43;2.10;;;;;;;;;;5075690;28;20282;-56
2022/06/18 10:47:44;;;;;;;2.47;1.98;;;;;;;;;;5075808;28;20201;-56
2022/06/18 10:50:13;;;;;;;4.45;2.30;;;;;;;;;;5075423;28;20291;-56
2022/06/18 10:52:41;;;;;;;2.13;1.92;;;;;;;;;;5075287;28;20307;-56
2022/06/18 10:55:11;;;;;;;4.78;1.98;;;;;;;;;;5074556;28;20208;-56
2022/06/18 10:57:39;;;;;;;3.10;1.90;;;;;;;;;;5075062;28;20228;-56
2022/06/18 11:00:11;;;;;;;4.57;2.47;;;;;;;;;;5075020;28;20261;-56
2022/06/18 11:02:40;;;;;;;4.00;2.00;;;;;;;;;;5075363;28;20243;-56
2022/06/18 11:05:17;;;;;;;3.15;2.17;;;;;;;;;;5075535;28;20200;-56
2022/06/18 11:07:47;;;;;;;3.03;1.90;;;;;;;;;;5074760;28;20490;-56
2022/06/18 11:10:24;;;;;;;3.85;2.30;;;;;;;;;;5074381;28;20204;-56
2022/06/18 11:12:53;;;;;;;4.95;2.50;;;;;;;;;;5054548;28;20259;-56
2022/06/18 11:15:26;;;;;;;4.50;2.20;;;;;;;;;;5054087;28;20814;-56
2022/06/18 11:17:54;;;;;;;4.57;2.30;;;;;;;;;;5054344;28;20229;-56
2022/06/18 11:20:24;;;;;;;5.03;2.22;;;;;;;;;;5054966;28;20240;-56
2022/06/18 11:22:53;;;;;;;4.43;2.25;;;;;;;;;;5054892;28;20267;-56
2022/06/18 11:25:26;;;;;;;2.92;2.25;;;;;;;;;;5054719;28;20715;-56
2022/06/18 11:27:54;;;;;;;7.10;2.65;;;;;;;;;;5054239;28;20254;-56
2022/06/18 11:30:26;;;;;;;4.97;2.40;;;;;;;;;;5054246;28;20212;-56
2022/06/18 11:32:53;;;;;;;4.22;2.33;;;;;;;;;;5053557;28;20245;-56
2022/06/18 11:35:22;;;;;;;5.13;2.50;;;;;;;;;;5053448;28;20556;-56
2022/06/18 11:37:59;;;;;;;5.45;2.40;;;;;;;;;;5053571;28;20228;-56
2022/06/18 11:40:26;;;;;;;5.65;2.50;;;;;;;;;;5054192;28;20212;-56
2022/06/18 11:42:56;;;;;;;4.10;2.42;;;;;;;;;;5053766;28;20549;-56
2022/06/18 11:45:34;;;;;;;4.47;2.25;;;;;;;;;;5056945;28;20197;-56
2022/06/18 11:48:06;;;;;;;4.15;2.50;;;;;;;;;;5057470;28;20204;-56
2022/06/18 11:50:35;;;;;;;4.25;2.40;;;;;;;;;;5058068;28;20213;-56
2022/06/18 11:53:08;;;;;;;6.55;2.40;;;;;;;;;;5057559;28;20206;-56
2022/06/18 11:55:37;;;;;;;5.90;2.50;;;;;;;;;;5056948;28;20227;-56
2022/06/18 11:58:10;;;;;;;7.43;2.97;;;;;;;;;;5058134;28;20268;-56
2022/06/18 12:00:44;;;;;;;4.55;2.35;;;;;;;;;;5058347;28;20204;-56
2022/06/18 12:03:15;;;;;;;6.90;2.65;;;;;;;;;;5057251;28;20216;-56
2022/06/18 12:05:45;;;;;;;4.82;2.72;;;;;;;;;;5056839;28;20201;-56
2022/06/18 12:08:16;;;;;;;6.10;2.70;;;;;;;;;;5057362;28;20220;-56
2022/06/18 12:10:48;;;;;;;5.63;2.92;;;;;;;;;;5059967;28;20252;-56
2022/06/18 12:13:20;;;;;;;8.85;2.90;;;;;;;;;;5077255;28;20205;-56
2022/06/18 12:15:50;;;;;;;7.13;2.83;;;;;;;;;;5076750;28;20568;-56
2022/06/18 12:18:19;;;;;;;5.35;2.47;;;;;;;;;;5076773;28;20324;-56
2022/06/18 12:20:52;;;;;;;6.32;2.70;;;;;;;;;;5077661;28;20200;-56
2022/06/18 12:23:24;;;;;;;5.80;2.70;;;;;;;;;;5077481;28;20729;-56
2022/06/18 12:25:57;;;;;;;7.10;2.95;;;;;;;;;;5077065;28;20196;-56
2022/06/18 12:28:31;;;;;;;8.82;3.45;;;;;;;;;;5076549;28;20240;-56
2022/06/18 12:31:02;;;;;;;9.13;3.20;;;;;;;;;;5077370;28;20204;-56
2022/06/18 12:33:33;;;;;;;6.60;3.00;;;;;;;;;;5076359;28;20193;-56
2022/06/18 12:36:04;;;;;;;5.50;2.63;;;;;;;;;;5076373;28;20254;-56
2022/06/18 12:38:38;;;;;;;5.63;2.92;;;;;;;;;;5076834;28;20286;-56
2022/06/18 12:41:09;;;;;;;3.50;2.72;;;;;;;;;;5077479;28;20212;-57
2022/06/18 12:43:41;;;;;;;6.32;3.10;;;;;;;;;;5076546;28;20247;-56
2022/06/18 12:46:14;;;;;;;8.18;2.80;;;;;;;;;;5077344;28;20584;-56
2022/06/18 12:48:45;;;;;;;7.32;2.83;;;;;;;;;;5077248;28;20539;-56
2022/06/18 12:51:18;;;;;;;6.53;2.92;;;;;;;;;;5075638;28;20251;-56
2022/06/18 12:53:56;;;;;;;5.57;2.95;;;;;;;;;;5075453;28;20707;-56
2022/06/18 12:56:28;;;;;;;6.82;3.08;;;;;;;;;;5077145;28;20243;-56
2022/06/18 12:58:58;;;;;;;7.50;3.30;;;;;;;;;;5075888;28;20252;-56
2022/06/18 13:01:30;;;;;;;4.18;2.70;;;;;;;;;;5075863;28;20226;-56
2022/06/18 13:04:07;;;;;;;4.50;2.78;;;;;;;;;;5076643;28;20208;-56
2022/06/18 13:06:39;;;;;;;5.50;2.95;;;;;;;;;;5075687;28;20782;-57
2022/06/18 13:09:13;;;;;;;5.97;2.80;;;;;;;;;;5075883;28;20193;-56
2022/06/18 13:11:47;;;;;;;8.07;3.08;;;;;;;;;;5075839;28;20635;-56
2022/06/18 13:14:20;;;;;;;9.02;3.35;;;;;;;;;;5076268;28;20546;-56
2022/06/18 13:16:51;;;;;;;9.48;3.33;;;;;;;;;;5076836;28;20598;-56
2022/06/18 13:19:20;;;;;;;9.68;3.65;;;;;;;;;;5075990;28;20227;-56
2022/06/18 13:21:48;;;;;;;5.75;2.97;;;;;;;;;;5076215;28;20200;-56
2022/06/18 13:29:53;;;;;;;9.10;3.25;;;;;;;;;;5056387;28;20276;-56
2022/06/18 13:32:26;;;;;;;6.72;2.83;;;;;;;;;;5056313;28;20638;-56
2022/06/18 13:34:58;;;;;;;7.50;3.08;;;;;;;;;;5055973;28;20269;-56
2022/06/18 13:37:29;;;;;;;9.95;3.50;;;;;;;;;;5055413;28;20228;-56
2022/06/18 13:40:02;;;;;;;12.07;3.20;;;;;;;;;;5055918;28;20255;-56
2022/06/18 13:42:35;;;;;;;7.40;3.13;;;;;;;;;;5055955;28;20232;-56
2022/06/18 13:45:20;;;;;;;8.68;3.10;;;;;;;;;;5055609;28;20264;-56
2022/06/18 13:47:51;;;;;;;8.25;3.10;;;;;;;;;;5056037;28;20546;-56
2022/06/18 13:50:25;;;;;;;8.82;3.38;;;;;;;;;;5056516;28;20267;-56
2022/06/18 13:52:53;;;;;;;6.45;3.65;;;;;;;;;;5075448;28;20277;-56
2022/06/18 13:55:34;;;;;;;11.70;3.60;;;;;;;;;;5075103;28;20766;-56
2022/06/18 13:58:01;;;;;;;6.97;3.05;;;;;;;;;;5073870;28;20259;-56
2022/06/18 14:00:29;;;;;;;6.38;3.25;;;;;;;;;;5072823;28;20196;-56
2022/06/18 14:03:00;;;;;;;8.57;3.10;;;;;;;;;;5074097;28;20773;-56
2022/06/18 14:05:51;;;;;;;8.50;3.45;;;;;;;;;;5073700;28;20603;-56
2022/06/18 14:08:26;;;;;;;8.93;3.50;;;;;;;;;;5054636;28;20258;-56
2022/06/18 14:10:56;;;;;;;9.85;3.72;;;;;;;;;;5072985;28;20286;-56
2022/06/18 14:13:25;;;;;;;6.22;3.25;;;;;;;;;;5073505;28;20270;-56
2022/06/18 14:15:54;;;;;;;10.65;3.40;;;;;;;;;;5073225;28;20465;-56
2022/06/18 14:18:22;;;;;;;8.85;3.47;;;;;;;;;;5073350;28;20228;-56
2022/06/18 14:20:56;;;;;;;6.40;3.35;;;;;;;;;;5073785;28;20588;-56
2022/06/18 14:23:26;;;;;;;7.65;3.42;;;;;;;;;;5074317;28;20553;-56
2022/06/18 14:26:06;;;;;;;6.43;3.42;;;;;;;;;;5072870;28;20232;-56
2022/06/18 14:28:35;;;;;;;6.47;3.25;;;;;;;;;;5075400;28;20513;-56
2022/06/18 14:31:07;;;;;;;8.20;3.35;;;;;;;;;;5075943;28;20228;-56
2022/06/18 14:33:38;;;;;;;9.95;3.28;;;;;;;;;;5075420;28;20204;-56
2022/06/18 14:36:12;;;;;;;6.20;3.38;;;;;;;;;;5075476;28;20304;-56
2022/06/18 14:38:40;;;;;;;8.25;3.60;;;;;;;;;;5075197;28;20246;-56
2022/06/18 14:44:03;;;;;;;5.70;3.40;;;;;;;;;;5074441;28;20277;-56
2022/06/18 14:46:37;;;;;;;5.43;3.13;;;;;;;;;;5074221;28;20204;-56
2022/06/18 14:49:23;;;;;;;6.55;3.35;;;;;;;;;;5074895;28;20437;-56
2022/06/18 14:52:12;;;;;;;5.28;2.90;;;;;;;;;;5075098;28;20239;-56
2022/06/18 14:54:50;;;;;;;8.57;3.60;;;;;;;;;;5074586;28;20200;-56
2022/06/18 14:57:44;;;;;;;7.63;3.20;;;;;;;;;;5073909;28;20212;-56
2022/06/18 15:00:31;;;;;;;8.07;3.15;;;;;;;;;;5074653;28;20247;-56
2022/06/18 15:03:01;;;;;;;6.88;3.30;;;;;;;;;;5074787;28;20236;-57
2022/06/18 15:05:30;;;;;;;6.72;3.30;;;;;;;;;;5074696;28;20196;-56
2022/06/18 15:08:08;;;;;;;8.23;3.83;;;;;;;;;;5073902;28;20231;-56
2022/06/18 15:10:37;;;;;;;8.90;3.65;;;;;;;;;;5074373;28;20632;-57
2022/06/18 15:13:04;;;;;;;6.15;3.05;;;;;;;;;;5074731;28;20200;-57
2022/06/18 15:15:47;;;;;;;9.05;3.40;;;;;;;;;;5074474;28;20910;-56
2022/06/18 15:18:26;;;;;;;6.53;3.28;;;;;;;;;;5075424;28;20823;-56
2022/06/18 15:20:57;;;;;;;6.28;3.10;;;;;;;;;;5078012;28;20208;-56
2022/06/18 15:23:39;;;;;;;6.20;3.17;;;;;;;;;;5078028;28;20211;-56
2022/06/18 15:26:07;;;;;;;7.00;3.30;;;;;;;;;;5077676;28;20208;-56